sensor_id;sensor_type;location;lat;lon;timestamp;pressure;altitude;pressure_sealevel;temperature;humidity
11444;BME280;5778;47.856;12.154;2022-12-18T00:00:12;97418.31;;;-2.52;100.00
11444;BME280;5778;47.856;12.154;2022-12-18T00:02:44;97428.56;;;-2.41;100.00
11444;BME280;5778;47.856;12.154;2022-12-18T00:05:11;97432.66;;;-2.38;100.00
11444;BME280;5778;47.856;12.154;2022-12-18T00:07:38;97426.13;;;-2.52;100.00
11444;BME280;5778;47.856;12.154;2022-12-18T00:10:06;97423.94;;;-2.47;100.00
11444;BME280;5778;47.856;12.154;2022-12-18T00:12:35;97422.56;;;-2.51;100.00
11444;BME280;5778;47.856;12.154;2022-12-18T00:15:02;97417.09;;;-2.48;100.00
11444;BME280;5778;47.856;12.154;2022-12-18T00:17:29;97419.75;;;-2.57;100.00
11444;BME280;5778;47.856;12.154;2022-12-18T00:19:56;97416.34;;;-2.67;100.00
11444;BME280;5778;47.856;12.154;2022-12-18T00:22:23;97420.59;;;-2.66;100.00
11444;BME280;5778;47.856;12.154;2022-12-18T00:24:50;97422.38;;;-2.67;100.00
11444;BME280;5778;47.856;12.154;2022-12-18T00:27:17;97419.69;;;-2.75;100.00
11444;BME280;5778;47.856;12.154;2022-12-18T00:29:45;97422.28;;;-2.75;100.00
11444;BME280;5778;47.856;12.154;2022-12-18T00:32:12;97412.97;;;-2.77;100.00
11444;BME280;5778;47.856;12.154;2022-12-18T00:34:39;97422.56;;;-2.78;100.00
11444;BME280;5778;47.856;12.154;2022-12-18T00:37:06;97423.03;;;-2.92;100.00
11444;BME280;5778;47.856;12.154;2022-12-18T00:39:33;97420.66;;;-2.76;100.00
11444;BME280;5778;47.856;12.154;2022-12-18T00:42:00;97403.91;;;-2.73;100.00
11444;BME280;5778;47.856;12.154;2022-12-18T00:44:46;97409.53;;;-2.78;100.00
11444;BME280;5778;47.856;12.154;2022-12-18T00:47:13;97412.25;;;-2.70;100.00
11444;BME280;5778;47.856;12.154;2022-12-18T00:49:40;97410.13;;;-2.84;100.00
11444;BME280;5778;47.856;12.154;2022-12-18T00:52:07;97415.88;;;-2.90;100.00
11444;BME280;5778;47.856;12.154;2022-12-18T00:54:35;97415.00;;;-3.08;100.00
11444;BME280;5778;47.856;12.154;2022-12-18T00:57:02;97421.44;;;-3.12;100.00
11444;BME280;5778;47.856;12.154;2022-12-18T00:59:29;97418.16;;;-3.14;100.00
11444;BME280;5778;47.856;12.154;2022-12-18T01:01:58;97429.47;;;-2.96;100.00
11444;BME280;5778;47.856;12.154;2022-12-18T01:04:26;97423.59;;;-2.98;100.00
11444;BME280;5778;47.856;12.154;2022-12-18T01:06:53;97424.31;;;-3.05;100.00
11444;BME280;5778;47.856;12.154;2022-12-18T01:09:19;97428.28;;;-3.01;100.00
11444;BME280;5778;47.856;12.154;2022-12-18T01:11:46;97429.28;;;-3.21;100.00
11444;BME280;5778;47.856;12.154;2022-12-18T01:14:14;97428.44;;;-3.12;100.00
11444;BME280;5778;47.856;12.154;2022-12-18T01:16:41;97437.84;;;-3.02;100.00
11444;BME280;5778;47.856;12.154;2022-12-18T01:19:10;97446.59;;;-2.93;100.00
11444;BME280;5778;47.856;12.154;2022-12-18T01:21:38;97451.00;;;-2.94;100.00
11444;BME280;5778;47.856;12.154;2022-12-18T01:24:05;97442.22;;;-2.93;100.00
11444;BME280;5778;47.856;12.154;2022-12-18T01:26:33;97450.03;;;-2.93;100.00
11444;BME280;5778;47.856;12.154;2022-12-18T01:29:00;97447.91;;;-2.80;100.00
11444;BME280;5778;47.856;12.154;2022-12-18T01:31:30;97451.13;;;-2.95;100.00
11444;BME280;5778;47.856;12.154;2022-12-18T01:34:02;97449.50;;;-2.96;100.00
11444;BME280;5778;47.856;12.154;2022-12-18T01:36:32;97444.97;;;-3.04;100.00
11444;BME280;5778;47.856;12.154;2022-12-18T01:39:00;97450.19;;;-3.04;100.00
11444;BME280;5778;47.856;12.154;2022-12-18T01:41:29;97455.22;;;-2.93;100.00
11444;BME280;5778;47.856;12.154;2022-12-18T01:47:33;97463.47;;;-3.07;100.00
11444;BME280;5778;47.856;12.154;2022-12-18T01:50:05;97473.06;;;-3.17;100.00
11444;BME280;5778;47.856;12.154;2022-12-18T01:52:35;97479.22;;;-3.08;100.00
11444;BME280;5778;47.856;12.154;2022-12-18T01:55:08;97483.91;;;-3.59;100.00
11444;BME280;5778;47.856;12.154;2022-12-18T01:57:36;97485.69;;;-3.60;100.00
11444;BME280;5778;47.856;12.154;2022-12-18T02:00:07;97490.22;;;-3.71;100.00
11444;BME280;5778;47.856;12.154;2022-12-18T02:02:41;97492.25;;;-3.75;100.00
11444;BME280;5778;47.856;12.154;2022-12-18T02:05:10;97489.38;;;-3.62;100.00
11444;BME280;5778;47.856;12.154;2022-12-18T02:07:45;97492.13;;;-3.54;100.00
11444;BME280;5778;47.856;12.154;2022-12-18T02:10:21;97501.13;;;-3.49;100.00
11444;BME280;5778;47.856;12.154;2022-12-18T02:12:54;97496.22;;;-3.71;100.00
11444;BME280;5778;47.856;12.154;2022-12-18T02:15:27;97486.25;;;-3.56;100.00
11444;BME280;5778;47.856;12.154;2022-12-18T02:18:03;97488.03;;;-3.66;100.00
11444;BME280;5778;47.856;12.154;2022-12-18T02:20:35;97479.53;;;-3.78;100.00
11444;BME280;5778;47.856;12.154;2022-12-18T02:23:16;97476.78;;;-3.67;100.00
11444;BME280;5778;47.856;12.154;2022-12-18T02:26:07;97484.75;;;-3.49;100.00
11444;BME280;5778;47.856;12.154;2022-12-18T02:28:41;97480.78;;;-3.34;100.00
11444;BME280;5778;47.856;12.154;2022-12-18T02:31:13;97480.34;;;-3.30;100.00
11444;BME280;5778;47.856;12.154;2022-12-18T02:33:43;97480.34;;;-3.49;100.00
11444;BME280;5778;47.856;12.154;2022-12-18T02:36:13;97485.94;;;-3.44;100.00
11444;BME280;5778;47.856;12.154;2022-12-18T02:38:42;97482.41;;;-3.33;100.00
11444;BME280;5778;47.856;12.154;2022-12-18T02:41:16;97469.22;;;-3.13;100.00
11444;BME280;5778;47.856;12.154;2022-12-18T02:43:49;97475.94;;;-3.10;100.00
11444;BME280;5778;47.856;12.154;2022-12-18T02:46:29;97466.63;;;-3.13;100.00
11444;BME280;5778;47.856;12.154;2022-12-18T02:49:17;97478.09;;;-3.06;100.00
11444;BME280;5778;47.856;12.154;2022-12-18T02:51:51;97472.91;;;-2.96;100.00
11444;BME280;5778;47.856;12.154;2022-12-18T02:54:31;97475.34;;;-2.95;100.00
11444;BME280;5778;47.856;12.154;2022-12-18T02:57:12;97475.75;;;-2.90;100.00
11444;BME280;5778;47.856;12.154;2022-12-18T02:59:51;97472.59;;;-2.93;100.00
11444;BME280;5778;47.856;12.154;2022-12-18T03:02:25;97475.91;;;-3.01;100.00
11444;BME280;5778;47.856;12.154;2022-12-18T03:04:58;97475.25;;;-3.03;100.00
11444;BME280;5778;47.856;12.154;2022-12-18T03:07:34;97481.66;;;-2.97;100.00
11444;BME280;5778;47.856;12.154;2022-12-18T03:10:09;97481.91;;;-2.91;100.00
11444;BME280;5778;47.856;12.154;2022-12-18T03:12:43;97475.91;;;-3.01;100.00
11444;BME280;5778;47.856;12.154;2022-12-18T03:15:16;97469.75;;;-3.09;100.00
11444;BME280;5778;47.856;12.154;2022-12-18T03:17:52;97475.69;;;-3.36;100.00
11444;BME280;5778;47.856;12.154;2022-12-18T03:20:26;97474.59;;;-3.24;100.00
11444;BME280;5778;47.856;12.154;2022-12-18T03:23:04;97472.94;;;-3.25;100.00
11444;BME280;5778;47.856;12.154;2022-12-18T03:25:35;97473.50;;;-3.21;100.00
11444;BME280;5778;47.856;12.154;2022-12-18T03:28:07;97478.97;;;-3.24;100.00
11444;BME280;5778;47.856;12.154;2022-12-18T03:30:40;97475.66;;;-3.17;100.00
11444;BME280;5778;47.856;12.154;2022-12-18T03:33:10;97479.34;;;-3.00;100.00
11444;BME280;5778;47.856;12.154;2022-12-18T03:35:44;97484.44;;;-3.18;100.00
11444;BME280;5778;47.856;12.154;2022-12-18T03:38:12;97483.88;;;-3.12;100.00
11444;BME280;5778;47.856;12.154;2022-12-18T03:40:51;97477.53;;;-3.00;100.00
11444;BME280;5778;47.856;12.154;2022-12-18T03:43:38;97478.09;;;-3.06;100.00
11444;BME280;5778;47.856;12.154;2022-12-18T03:46:16;97482.63;;;-2.98;100.00
11444;BME280;5778;47.856;12.154;2022-12-18T03:48:54;97466.75;;;-3.14;100.00
11444;BME280;5778;47.856;12.154;2022-12-18T03:51:26;97462.50;;;-3.06;100.00
11444;BME280;5778;47.856;12.154;2022-12-18T03:53:59;97466.91;;;-3.06;100.00
11444;BME280;5778;47.856;12.154;2022-12-18T03:56:34;97465.78;;;-3.04;100.00
11444;BME280;5778;47.856;12.154;2022-12-18T03:59:06;97464.25;;;-2.97;100.00
11444;BME280;5778;47.856;12.154;2022-12-18T04:01:40;97466.13;;;-2.80;100.00
11444;BME280;5778;47.856;12.154;2022-12-18T04:04:14;97469.25;;;-2.76;100.00
11444;BME280;5778;47.856;12.154;2022-12-18T04:06:45;97465.88;;;-2.77;100.00
11444;BME280;5778;47.856;12.154;2022-12-18T04:09:17;97460.94;;;-2.80;100.00
11444;BME280;5778;47.856;12.154;2022-12-18T04:11:49;97462.44;;;-2.77;100.00
11444;BME280;5778;47.856;12.154;2022-12-18T04:14:20;97469.97;;;-2.74;100.00
11444;BME280;5778;47.856;12.154;2022-12-18T04:16:52;97467.63;;;-2.77;100.00
11444;BME280;5778;47.856;12.154;2022-12-18T04:19:25;97473.09;;;-2.71;100.00
11444;BME280;5778;47.856;12.154;2022-12-18T04:21:53;97481.41;;;-3.04;100.00
11444;BME280;5778;47.856;12.154;2022-12-18T04:24:20;97486.09;;;-3.26;100.00
11444;BME280;5778;47.856;12.154;2022-12-18T04:27:01;97477.75;;;-3.39;100.00
11444;BME280;5778;47.856;12.154;2022-12-18T04:29:35;97479.00;;;-3.43;100.00
11444;BME280;5778;47.856;12.154;2022-12-18T04:32:03;97471.59;;;-3.38;100.00
11444;BME280;5778;47.856;12.154;2022-12-18T04:34:31;97472.69;;;-3.41;100.00
11444;BME280;5778;47.856;12.154;2022-12-18T04:36:59;97481.88;;;-3.37;100.00
11444;BME280;5778;47.856;12.154;2022-12-18T04:39:26;97480.91;;;-3.45;100.00
11444;BME280;5778;47.856;12.154;2022-12-18T04:41:57;97479.53;;;-3.59;100.00
11444;BME280;5778;47.856;12.154;2022-12-18T04:44:27;97492.13;;;-3.64;100.00
11444;BME280;5778;47.856;12.154;2022-12-18T04:46:57;97500.19;;;-3.67;100.00
11444;BME280;5778;47.856;12.154;2022-12-18T04:49:24;97484.88;;;-3.70;100.00
11444;BME280;5778;47.856;12.154;2022-12-18T04:51:51;97472.56;;;-3.77;100.00
11444;BME280;5778;47.856;12.154;2022-12-18T04:54:19;97484.84;;;-3.79;100.00
11444;BME280;5778;47.856;12.154;2022-12-18T04:56:48;97493.59;;;-3.90;100.00
11444;BME280;5778;47.856;12.154;2022-12-18T04:59:15;97493.06;;;-3.93;100.00
11444;BME280;5778;47.856;12.154;2022-12-18T05:01:43;97495.09;;;-3.97;100.00
11444;BME280;5778;47.856;12.154;2022-12-18T05:04:16;97493.59;;;-3.99;100.00
11444;BME280;5778;47.856;12.154;2022-12-18T05:06:43;97505.22;;;-3.94;100.00
11444;BME280;5778;47.856;12.154;2022-12-18T05:09:10;97507.94;;;-3.95;100.00
11444;BME280;5778;47.856;12.154;2022-12-18T05:11:37;97523.94;;;-4.00;100.00
11444;BME280;5778;47.856;12.154;2022-12-18T05:14:04;97518.59;;;-4.08;100.00
11444;BME280;5778;47.856;12.154;2022-12-18T05:16:31;97525.34;;;-4.26;100.00
11444;BME280;5778;47.856;12.154;2022-12-18T05:18:58;97532.47;;;-4.28;100.00
11444;BME280;5778;47.856;12.154;2022-12-18T05:21:26;97521.44;;;-4.20;100.00
11444;BME280;5778;47.856;12.154;2022-12-18T05:23:53;97524.81;;;-4.20;100.00
11444;BME280;5778;47.856;12.154;2022-12-18T05:26:21;97525.66;;;-4.19;100.00
11444;BME280;5778;47.856;12.154;2022-12-18T05:28:48;97531.38;;;-4.25;100.00
11444;BME280;5778;47.856;12.154;2022-12-18T05:31:15;97539.19;;;-4.16;100.00
11444;BME280;5778;47.856;12.154;2022-12-18T05:33:43;97538.25;;;-4.15;100.00
11444;BME280;5778;47.856;12.154;2022-12-18T05:36:12;97538.66;;;-4.19;100.00
11444;BME280;5778;47.856;12.154;2022-12-18T05:38:40;97564.72;;;-4.21;100.00
11444;BME280;5778;47.856;12.154;2022-12-18T05:41:08;97566.09;;;-4.26;100.00
11444;BME280;5778;47.856;12.154;2022-12-18T05:43:37;97560.06;;;-4.27;100.00
11444;BME280;5778;47.856;12.154;2022-12-18T05:46:05;97556.00;;;-4.20;100.00
11444;BME280;5778;47.856;12.154;2022-12-18T05:48:33;97551.31;;;-4.26;100.00
11444;BME280;5778;47.856;12.154;2022-12-18T05:51:05;97557.69;;;-4.09;100.00
11444;BME280;5778;47.856;12.154;2022-12-18T05:53:33;97561.06;;;-4.18;100.00
11444;BME280;5778;47.856;12.154;2022-12-18T05:56:02;97568.59;;;-4.15;100.00
11444;BME280;5778;47.856;12.154;2022-12-18T05:58:31;97568.44;;;-4.14;100.00
11444;BME280;5778;47.856;12.154;2022-12-18T06:01:07;97567.84;;;-4.27;100.00
11444;BME280;5778;47.856;12.154;2022-12-18T06:03:35;97559.63;;;-4.32;100.00
11444;BME280;5778;47.856;12.154;2022-12-18T06:06:02;97549.88;;;-4.49;100.00
11444;BME280;5778;47.856;12.154;2022-12-18T06:08:29;97557.47;;;-4.27;100.00
11444;BME280;5778;47.856;12.154;2022-12-18T06:10:56;97561.47;;;-4.23;100.00
11444;BME280;5778;47.856;12.154;2022-12-18T06:13:25;97563.06;;;-4.31;100.00
11444;BME280;5778;47.856;12.154;2022-12-18T06:15:52;97574.25;;;-4.31;100.00
11444;BME280;5778;47.856;12.154;2022-12-18T06:18:21;97577.66;;;-4.40;100.00
11444;BME280;5778;47.856;12.154;2022-12-18T06:20:55;97581.78;;;-4.58;100.00
11444;BME280;5778;47.856;12.154;2022-12-18T06:23:22;97582.06;;;-4.81;100.00
11444;BME280;5778;47.856;12.154;2022-12-18T06:25:49;97577.50;;;-4.89;100.00
11444;BME280;5778;47.856;12.154;2022-12-18T06:28:16;97583.94;;;-4.83;100.00
11444;BME280;5778;47.856;12.154;2022-12-18T06:30:44;97586.59;;;-4.74;100.00
11444;BME280;5778;47.856;12.154;2022-12-18T06:33:11;97578.63;;;-4.82;100.00
11444;BME280;5778;47.856;12.154;2022-12-18T06:35:40;97577.25;;;-4.86;100.00
11444;BME280;5778;47.856;12.154;2022-12-18T06:38:07;97586.25;;;-4.90;100.00
11444;BME280;5778;47.856;12.154;2022-12-18T06:40:37;97582.44;;;-4.86;100.00
11444;BME280;5778;47.856;12.154;2022-12-18T06:43:04;97578.53;;;-4.80;100.00
11444;BME280;5778;47.856;12.154;2022-12-18T06:45:31;97581.69;;;-4.77;100.00
11444;BME280;5778;47.856;12.154;2022-12-18T06:47:59;97580.28;;;-4.81;100.00
11444;BME280;5778;47.856;12.154;2022-12-18T06:50:27;97584.66;;;-4.81;100.00
11444;BME280;5778;47.856;12.154;2022-12-18T06:52:54;97578.03;;;-4.95;100.00
11444;BME280;5778;47.856;12.154;2022-12-18T06:55:21;97584.34;;;-5.08;100.00
11444;BME280;5778;47.856;12.154;2022-12-18T06:57:48;97585.72;;;-5.04;100.00
11444;BME280;5778;47.856;12.154;2022-12-18T07:00:15;97588.63;;;-4.98;100.00
11444;BME280;5778;47.856;12.154;2022-12-18T07:02:42;97587.63;;;-4.86;100.00
11444;BME280;5778;47.856;12.154;2022-12-18T07:05:10;97587.06;;;-4.89;100.00
11444;BME280;5778;47.856;12.154;2022-12-18T07:07:37;97592.50;;;-4.92;100.00
11444;BME280;5778;47.856;12.154;2022-12-18T07:10:05;97602.78;;;-5.02;100.00
11444;BME280;5778;47.856;12.154;2022-12-18T07:12:32;97614.00;;;-5.01;100.00
11444;BME280;5778;47.856;12.154;2022-12-18T07:14:59;97609.66;;;-5.01;100.00
11444;BME280;5778;47.856;12.154;2022-12-18T07:17:25;97611.28;;;-5.00;100.00
11444;BME280;5778;47.856;12.154;2022-12-18T07:19:52;97610.22;;;-4.97;100.00
11444;BME280;5778;47.856;12.154;2022-12-18T07:22:21;97609.44;;;-4.88;100.00
11444;BME280;5778;47.856;12.154;2022-12-18T07:24:49;97610.91;;;-4.95;100.00
11444;BME280;5778;47.856;12.154;2022-12-18T07:27:16;97619.88;;;-4.99;100.00
11444;BME280;5778;47.856;12.154;2022-12-18T07:29:43;97619.25;;;-4.92;100.00
11444;BME280;5778;47.856;12.154;2022-12-18T07:32:10;97624.19;;;-4.89;100.00
11444;BME280;5778;47.856;12.154;2022-12-18T07:34:38;97634.75;;;-4.81;100.00
11444;BME280;5778;47.856;12.154;2022-12-18T07:37:05;97640.16;;;-4.73;100.00
11444;BME280;5778;47.856;12.154;2022-12-18T07:39:33;97634.97;;;-4.73;100.00
11444;BME280;5778;47.856;12.154;2022-12-18T07:42:00;97636.16;;;-4.77;100.00
11444;BME280;5778;47.856;12.154;2022-12-18T07:44:41;97634.69;;;-4.70;100.00
11444;BME280;5778;47.856;12.154;2022-12-18T07:47:08;97638.13;;;-4.69;100.00
11444;BME280;5778;47.856;12.154;2022-12-18T07:49:35;97632.44;;;-4.63;100.00
11444;BME280;5778;47.856;12.154;2022-12-18T07:52:02;97640.09;;;-4.62;100.00
11444;BME280;5778;47.856;12.154;2022-12-18T07:54:28;97642.41;;;-4.59;100.00
11444;BME280;5778;47.856;12.154;2022-12-18T07:56:57;97652.81;;;-4.59;100.00
11444;BME280;5778;47.856;12.154;2022-12-18T07:59:24;97644.84;;;-4.67;100.00
11444;BME280;5778;47.856;12.154;2022-12-18T08:01:51;97652.34;;;-4.84;100.00
11444;BME280;5778;47.856;12.154;2022-12-18T08:04:18;97643.00;;;-4.76;100.00
11444;BME280;5778;47.856;12.154;2022-12-18T08:06:46;97641.22;;;-4.75;100.00
11444;BME280;5778;47.856;12.154;2022-12-18T08:09:13;97655.97;;;-4.76;100.00
11444;BME280;5778;47.856;12.154;2022-12-18T08:11:40;97654.16;;;-4.64;100.00
11444;BME280;5778;47.856;12.154;2022-12-18T08:14:08;97653.44;;;-4.46;100.00
11444;BME280;5778;47.856;12.154;2022-12-18T08:16:35;97645.00;;;-4.18;100.00
11444;BME280;5778;47.856;12.154;2022-12-18T08:19:03;97638.28;;;-4.20;100.00
11444;BME280;5778;47.856;12.154;2022-12-18T08:21:31;97643.16;;;-4.27;100.00
11444;BME280;5778;47.856;12.154;2022-12-18T08:23:59;97647.28;;;-4.24;100.00
11444;BME280;5778;47.856;12.154;2022-12-18T08:26:28;97641.84;;;-4.42;100.00
11444;BME280;5778;47.856;12.154;2022-12-18T08:28:56;97644.78;;;-4.26;100.00
11444;BME280;5778;47.856;12.154;2022-12-18T08:31:27;97649.81;;;-4.34;100.00
11444;BME280;5778;47.856;12.154;2022-12-18T08:33:55;97639.16;;;-4.31;100.00
11444;BME280;5778;47.856;12.154;2022-12-18T08:36:22;97641.00;;;-4.22;100.00
11444;BME280;5778;47.856;12.154;2022-12-18T08:38:49;97641.47;;;-4.07;100.00
11444;BME280;5778;47.856;12.154;2022-12-18T08:41:17;97646.31;;;-4.03;100.00
11444;BME280;5778;47.856;12.154;2022-12-18T08:43:45;97642.63;;;-4.21;100.00
11444;BME280;5778;47.856;12.154;2022-12-18T08:46:35;97644.50;;;-4.02;100.00
11444;BME280;5778;47.856;12.154;2022-12-18T08:49:03;97643.19;;;-4.17;100.00
11444;BME280;5778;47.856;12.154;2022-12-18T08:51:30;97648.19;;;-4.05;100.00
11444;BME280;5778;47.856;12.154;2022-12-18T08:53:57;97651.75;;;-4.06;100.00
11444;BME280;5778;47.856;12.154;2022-12-18T08:56:24;97651.78;;;-3.96;100.00
11444;BME280;5778;47.856;12.154;2022-12-18T08:58:52;97662.91;;;-4.15;100.00
11444;BME280;5778;47.856;12.154;2022-12-18T09:03:48;97663.63;;;-4.13;100.00
11444;BME280;5778;47.856;12.154;2022-12-18T09:06:15;97677.72;;;-4.06;100.00
11444;BME280;5778;47.856;12.154;2022-12-18T09:08:42;97665.41;;;-4.04;100.00
11444;BME280;5778;47.856;12.154;2022-12-18T09:11:13;97677.09;;;-3.89;100.00
11444;BME280;5778;47.856;12.154;2022-12-18T09:13:41;97680.75;;;-4.01;100.00
11444;BME280;5778;47.856;12.154;2022-12-18T09:16:08;97680.75;;;-4.01;100.00
11444;BME280;5778;47.856;12.154;2022-12-18T09:18:35;97681.75;;;-3.92;100.00
11444;BME280;5778;47.856;12.154;2022-12-18T09:21:09;97676.16;;;-3.88;100.00
11444;BME280;5778;47.856;12.154;2022-12-18T09:23:36;97672.31;;;-3.93;100.00
11444;BME280;5778;47.856;12.154;2022-12-18T09:26:04;97669.66;;;-3.73;100.00
11444;BME280;5778;47.856;12.154;2022-12-18T09:28:31;97670.53;;;-3.53;100.00
11444;BME280;5778;47.856;12.154;2022-12-18T09:30:57;97671.53;;;-3.35;100.00
11444;BME280;5778;47.856;12.154;2022-12-18T09:33:25;97671.69;;;-3.37;100.00
11444;BME280;5778;47.856;12.154;2022-12-18T09:35:52;97668.69;;;-3.23;100.00
11444;BME280;5778;47.856;12.154;2022-12-18T09:38:20;97663.78;;;-3.26;100.00
11444;BME280;5778;47.856;12.154;2022-12-18T09:40:50;97660.53;;;-2.80;100.00
11444;BME280;5778;47.856;12.154;2022-12-18T09:43:22;97663.53;;;-2.66;100.00
11444;BME280;5778;47.856;12.154;2022-12-18T09:45:55;97661.03;;;-2.39;100.00
11444;BME280;5778;47.856;12.154;2022-12-18T09:48:29;97659.66;;;-2.33;100.00
11444;BME280;5778;47.856;12.154;2022-12-18T09:51:00;97660.22;;;-2.68;100.00
11444;BME280;5778;47.856;12.154;2022-12-18T09:53:35;97648.75;;;-2.56;100.00
11444;BME280;5778;47.856;12.154;2022-12-18T09:56:05;97656.25;;;-2.81;100.00
11444;BME280;5778;47.856;12.154;2022-12-18T09:58:37;97660.25;;;-2.58;100.00
11444;BME280;5778;47.856;12.154;2022-12-18T10:01:09;97647.59;;;-2.53;100.00
11444;BME280;5778;47.856;12.154;2022-12-18T10:03:36;97645.84;;;-2.53;100.00
11444;BME280;5778;47.856;12.154;2022-12-18T10:06:08;97649.25;;;-2.62;100.00
11444;BME280;5778;47.856;12.154;2022-12-18T10:08:44;97648.72;;;-3.03;100.00
11444;BME280;5778;47.856;12.154;2022-12-18T10:11:28;97645.28;;;-3.13;100.00
11444;BME280;5778;47.856;12.154;2022-12-18T10:14:22;97653.66;;;-3.10;100.00
11444;BME280;5778;47.856;12.154;2022-12-18T10:16:56;97648.72;;;-3.22;100.00
11444;BME280;5778;47.856;12.154;2022-12-18T10:19:35;97642.97;;;-3.26;100.00
11444;BME280;5778;47.856;12.154;2022-12-18T10:22:13;97648.34;;;-3.57;100.00
11444;BME280;5778;47.856;12.154;2022-12-18T10:24:50;97643.59;;;-3.52;100.00
11444;BME280;5778;47.856;12.154;2022-12-18T10:27:22;97634.56;;;-3.39;100.00
11444;BME280;5778;47.856;12.154;2022-12-18T10:29:50;97635.84;;;-3.14;100.00
11444;BME280;5778;47.856;12.154;2022-12-18T10:32:18;97623.00;;;-2.97;100.00
11444;BME280;5778;47.856;12.154;2022-12-18T10:34:46;97621.31;;;-2.60;100.00
11444;BME280;5778;47.856;12.154;2022-12-18T10:37:16;97615.50;;;-2.35;100.00
11444;BME280;5778;47.856;12.154;2022-12-18T10:39:46;97612.94;;;-2.44;100.00
11444;BME280;5778;47.856;12.154;2022-12-18T10:42:17;97613.13;;;-2.74;100.00
11444;BME280;5778;47.856;12.154;2022-12-18T10:44:45;97622.28;;;-2.80;100.00
11444;BME280;5778;47.856;12.154;2022-12-18T10:47:14;97617.75;;;-2.59;100.00
11444;BME280;5778;47.856;12.154;2022-12-18T10:49:49;97617.50;;;-2.56;100.00
11444;BME280;5778;47.856;12.154;2022-12-18T10:52:19;97597.56;;;-2.38;100.00
11444;BME280;5778;47.856;12.154;2022-12-18T10:54:49;97600.56;;;-2.42;100.00
11444;BME280;5778;47.856;12.154;2022-12-18T10:57:30;97591.19;;;-2.16;100.00
11444;BME280;5778;47.856;12.154;2022-12-18T11:02:45;97596.53;;;-2.18;100.00
11444;BME280;5778;47.856;12.154;2022-12-18T11:05:24;97601.50;;;-2.24;100.00
11444;BME280;5778;47.856;12.154;2022-12-18T11:07:52;97599.31;;;-2.29;100.00
11444;BME280;5778;47.856;12.154;2022-12-18T11:10:22;97596.22;;;-2.05;100.00
11444;BME280;5778;47.856;12.154;2022-12-18T11:12:50;97590.47;;;-2.09;100.00
11444;BME280;5778;47.856;12.154;2022-12-18T11:15:20;97587.78;;;-2.17;100.00
11444;BME280;5778;47.856;12.154;2022-12-18T11:17:49;97585.06;;;-1.71;100.00
11444;BME280;5778;47.856;12.154;2022-12-18T11:20:26;97585.91;;;-1.97;100.00
11444;BME280;5778;47.856;12.154;2022-12-18T11:22:57;97590.88;;;-2.50;100.00
11444;BME280;5778;47.856;12.154;2022-12-18T11:25:29;97589.56;;;-2.92;100.00
11444;BME280;5778;47.856;12.154;2022-12-18T11:27:58;97588.06;;;-3.13;100.00
11444;BME280;5778;47.856;12.154;2022-12-18T11:30:28;97592.88;;;-3.09;100.00
11444;BME280;5778;47.856;12.154;2022-12-18T11:33:03;97595.03;;;-3.33;100.00
11444;BME280;5778;47.856;12.154;2022-12-18T11:35:37;97592.25;;;-3.60;100.00
11444;BME280;5778;47.856;12.154;2022-12-18T11:38:12;97592.78;;;-3.75;100.00
11444;BME280;5778;47.856;12.154;2022-12-18T11:40:44;97601.13;;;-3.72;100.00
11444;BME280;5778;47.856;12.154;2022-12-18T11:43:16;97600.22;;;-3.52;100.00
11444;BME280;5778;47.856;12.154;2022-12-18T11:45:48;97602.16;;;-3.54;100.00
11444;BME280;5778;47.856;12.154;2022-12-18T11:48:18;97599.81;;;-3.38;100.00
11444;BME280;5778;47.856;12.154;2022-12-18T11:50:52;97604.88;;;-3.36;100.00
11444;BME280;5778;47.856;12.154;2022-12-18T11:53:21;97606.66;;;-3.46;100.00
11444;BME280;5778;47.856;12.154;2022-12-18T11:55:59;97595.56;;;-3.48;100.00
11444;BME280;5778;47.856;12.154;2022-12-18T11:58:40;97596.66;;;-3.60;100.00
11444;BME280;5778;47.856;12.154;2022-12-18T12:01:15;97596.63;;;-3.70;100.00
11444;BME280;5778;47.856;12.154;2022-12-18T12:04:08;97595.44;;;-3.47;100.00
11444;BME280;5778;47.856;12.154;2022-12-18T12:06:49;97596.00;;;-3.34;100.00
11444;BME280;5778;47.856;12.154;2022-12-18T12:09:25;97605.31;;;-3.03;100.00
11444;BME280;5778;47.856;12.154;2022-12-18T12:12:07;97591.75;;;-2.87;100.00
11444;BME280;5778;47.856;12.154;2022-12-18T12:14:47;97599.16;;;-2.83;100.00
11444;BME280;5778;47.856;12.154;2022-12-18T12:17:30;97590.66;;;-3.13;100.00
11444;BME280;5778;47.856;12.154;2022-12-18T12:20:06;97594.09;;;-3.13;100.00
11444;BME280;5778;47.856;12.154;2022-12-18T12:22:42;97601.63;;;-2.91;100.00
11444;BME280;5778;47.856;12.154;2022-12-18T12:25:27;97594.50;;;-3.08;100.00
11444;BME280;5778;47.856;12.154;2022-12-18T12:28:05;97599.28;;;-3.13;100.00
11444;BME280;5778;47.856;12.154;2022-12-18T12:30:40;97588.88;;;-3.13;100.00
11444;BME280;5778;47.856;12.154;2022-12-18T12:33:23;97586.69;;;-2.89;100.00
11444;BME280;5778;47.856;12.154;2022-12-18T12:36:00;97588.88;;;-3.13;100.00
11444;BME280;5778;47.856;12.154;2022-12-18T12:38:34;97583.44;;;-3.10;100.00
11444;BME280;5778;47.856;12.154;2022-12-18T12:41:05;97580.13;;;-2.93;100.00
11444;BME280;5778;47.856;12.154;2022-12-18T12:43:57;97581.31;;;-2.78;100.00
11444;BME280;5778;47.856;12.154;2022-12-18T12:46:25;97581.59;;;-2.71;100.00
11444;BME280;5778;47.856;12.154;2022-12-18T12:48:54;97567.63;;;-2.61;100.00
11444;BME280;5778;47.856;12.154;2022-12-18T12:51:24;97576.03;;;-2.95;100.00
11444;BME280;5778;47.856;12.154;2022-12-18T12:53:54;97575.88;;;-3.22;100.00
11444;BME280;5778;47.856;12.154;2022-12-18T12:56:22;97566.44;;;-3.33;100.00
11444;BME280;5778;47.856;12.154;2022-12-18T12:58:59;97558.38;;;-3.39;100.00
11444;BME280;5778;47.856;12.154;2022-12-18T13:01:35;97562.91;;;-3.32;100.00
11444;BME280;5778;47.856;12.154;2022-12-18T13:04:15;97556.84;;;-3.23;100.00
11444;BME280;5778;47.856;12.154;2022-12-18T13:06:49;97559.72;;;-3.35;100.00
11444;BME280;5778;47.856;12.154;2022-12-18T13:09:20;97552.63;;;-3.33;100.00
11444;BME280;5778;47.856;12.154;2022-12-18T13:11:48;97563.97;;;-3.34;100.00
11444;BME280;5778;47.856;12.154;2022-12-18T13:14:35;97572.34;;;-3.31;100.00
11444;BME280;5778;47.856;12.154;2022-12-18T13:17:28;97559.59;;;-3.15;100.00